Sargodha Weather



Sargodha's Current Weather

Temprature 23.76o clear sky

clear sky

Rain: 0 %

Min Temprature23.76o
Max Temprature23.76o
Humidity56
Wind Speed5.21 m/h
Sun Rise05:07:05
Sun Set19:05:29
Current Time: 24-May-2022 07:28:59
Lat/Lon: 32.0836, 72.6711




Sargodha's Geo Location



Sargodha's Weather Forecast

Time Overall Temp Min Temp Max Temp Humidity Wind Speed Rain
24-May-2022 (Tue)
08:00:00 clear sky 25.410 25.410 25.410 53 5.01 m/h 0 %
11:00:00 clear sky 27.070 27.070 30.390 47 4.3 m/h 0 %
14:00:00 clear sky 30.880 30.880 33.620 35 3.23 m/h 0 %
17:00:00 clear sky 34.190 34.190 34.190 22 1.67 m/h 0 %
20:00:00 clear sky 30.300 30.300 30.300 29 2.18 m/h 0 %
23:00:00 clear sky 28.710 28.710 28.710 32 0.3 m/h 0 %
25-May-2022 (Wed)
02:00:00 clear sky 27.520 27.520 27.520 34 0.62 m/h 0 %
05:00:00 clear sky 26.790 26.790 26.790 35 0.92 m/h 0 %
08:00:00 clear sky 31.530 31.530 31.530 27 2.47 m/h 0 %
11:00:00 clear sky 36.140 36.140 36.140 19 2.44 m/h 0 %
14:00:00 clear sky 38.490 38.490 38.490 16 1.67 m/h 0 %
17:00:00 clear sky 38.530 38.530 38.530 15 2.44 m/h 0 %
20:00:00 clear sky 34.260 34.260 34.260 21 2.93 m/h 0 %
23:00:00 clear sky 32.280 32.280 32.280 24 2.5 m/h 0 %
26-May-2022 (Thu)
02:00:00 clear sky 30.870 30.870 30.870 26 0.57 m/h 0 %
05:00:00 clear sky 29.620 29.620 29.620 28 1.28 m/h 0 %
08:00:00 clear sky 34.570 34.570 34.570 21 1.25 m/h 0 %
11:00:00 clear sky 39.460 39.460 39.460 15 2.42 m/h 0 %
14:00:00 clear sky 42.220 42.220 42.220 12 2.37 m/h 0 %
17:00:00 clear sky 42.320 42.320 42.320 11 3.12 m/h 0 %
20:00:00 clear sky 37.230 37.230 37.230 15 3.13 m/h 0 %
23:00:00 clear sky 34.720 34.720 34.720 18 2.91 m/h 0 %
27-May-2022 (Fri)
02:00:00 clear sky 32.690 32.690 32.690 22 1.94 m/h 0 %
05:00:00 clear sky 31.130 31.130 31.130 24 1.34 m/h 0 %
08:00:00 clear sky 36.470 36.470 36.470 18 3.43 m/h 0 %
11:00:00 clear sky 42.620 42.620 42.620 11 3.37 m/h 0 %
14:00:00 clear sky 45.550 45.550 45.550 9 3.96 m/h 0 %
17:00:00 clear sky 45.130 45.130 45.130 10 3.89 m/h 0 %
20:00:00 clear sky 39.500 39.500 39.500 15 3.81 m/h 0 %
23:00:00 clear sky 36.730 36.730 36.730 22 3.97 m/h 0 %
28-May-2022 (Sat)
02:00:00 clear sky 34.940 34.940 34.940 25 4.02 m/h 0 %
05:00:00 clear sky 32.880 32.880 32.880 25 5.69 m/h 0 %
08:00:00 clear sky 37.170 37.170 37.170 20 7.13 m/h 0 %
11:00:00 clear sky 43.120 43.120 43.120 10 5.75 m/h 0 %
14:00:00 clear sky 45.330 45.330 45.330 6 5.14 m/h 0 %
17:00:00 clear sky 45.150 45.150 45.150 5 3.88 m/h 0 %
20:00:00 clear sky 39.220 39.220 39.220 8 3.3 m/h 0 %
23:00:00 clear sky 34.890 34.890 34.890 24 8.46 m/h 0 %
29-May-2022 (Sun)
02:00:00 clear sky 33.300 33.300 33.300 27 7.21 m/h 0 %
05:00:00 clear sky 30.990 30.990 30.990 33 5.85 m/h 0 %

Famous Cities (61)